Marblehead, MA

5:48 PM EDT on June 02, 2015 (GMT -0400)
Pitman Road (Salem Harbor) | | Change Station
CLOSE
Current Station
Personal Weather Station
Location: Marblehead, MA
Elevation: 35 ft
Nearby Weather Stations

Elev 35 ft 42.51 °N, 70.86 °W | Updated 1 second ago

Rain
Rain
50.4 °F
Feels Like 50.4 °F
N
2.0
Wind Variable Wind from East
Gusts 14.0 mph

Today
High -- | Low -- °F
--% Chance of Precip.
Yesterday
High -- | Low -- °F
Precip. -- in
5:08 AM 8:14 PM
Full, 100% visible
Pressure 30.15 in
Visibility 10.0 miles
Clouds Mostly Cloudy 1400 ft
Overcast 2300 ft
Dew Point 48 °F
Humidity 91%
Rainfall 0.69 in
Snow Depth Not available.
UV 1 out of 12
Pollen .90 out of 12
Air Quality Not available.
Flu Activity Local Activity
METAR KBVY 022053Z AUTO 02009KT 10SM BKN014 OVC023 09/06 A3016 RMK AO2 SLP209 60000 T00940061 55005

More Conditions Fewer Conditions

Pressure 30.15 in
Visibility 10.0 miles
Clouds Mostly Cloudy 1400 ft
Overcast 2300 ft
Dew Point 48 °F
Humidity 91%
Rainfall 0.69 in
Snow Depth Not available.
UV 1 out of 12
Pollen .90 out of 12
Air Quality Not available.
Flu Activity Local Activity
METAR KBVY 022053Z AUTO 02009KT 10SM BKN014 OVC023 09/06 A3016 RMK AO2 SLP209 60000 T00940061 55005

More Conditions Fewer Conditions

10-Day Weather Forecast

×

Almanac

Astronomy

Jun. 02, 2015 Rise Set
Actual Time
Civil Twilight
Nautical Twilight
Astronomical Twilight
Moon
Length of Visible Light
Length of Day
Tomorrow will be .
, % of the Moon is Illuminated

Today's Extremes

State Highs State Lows

Community

WunderPhotos

Upload Photos

1,826,032 photos uploaded!

WunderBlogs® & News

Nearby

Air Quality

  Air Quality AQ Index Pollutant
Not available.

Snow Depth

Station Depth Elevation

Earthquake Activity

City Distance Mag. Time & Date
Minimum magnitude displayed is 2.5.

Coastal Water Temperatures

Place Temperature

Stations

Nearby Weather Stations

Station Location Temp. Windchill Dew Point Humidity Wind Precip. Elev Updated Type